SAS963 EKCH-LSZH
Flight info
| Callsign | SAS963 |
|---|---|
| Flight time | N/A |
| Altitude | 40000 |
| Route | NEXEN T503 GIMRU DCT MICOS DCT OTMON DCT SWALM DCT OMOGI/N0453F410 T721 RILAX |
| Aircraft | A343/H-SDE2E3FGHIJ4J5M1RWXYZ/LB1D1 |
Departure
| Time | 2026-04-23 15:21 |
|---|---|
| Airport | Copenhagen Kastrup Airport (EKCH) |
Arrival
| Time | N/A |
|---|---|
| Airport | Zürich Airport (LSZH) |
| Time | Latitude | Longitude | Altitude | Speed | Heading |
|---|---|---|---|---|---|
| 2026-04-23 14:51 | 55.62644 | 12.65059 | 27 ft | 0 kts | 278° |
| 2026-04-23 14:52 | 55.62645 | 12.65059 | 27 ft | 0 kts | 280° |
| 2026-04-23 15:10 | 55.62644 | 12.65062 | 27 ft | 2 kts | 280° |
| 2026-04-23 15:10 | 55.62641 | 12.65108 | 27 ft | 4 kts | 273° |
| 2026-04-23 15:10 | 55.62641 | 12.65155 | 27 ft | 4 kts | 264° |
| 2026-04-23 15:11 | 55.62645 | 12.65202 | 27 ft | 4 kts | 253° |
| 2026-04-23 15:11 | 55.62646 | 12.65211 | 27 ft | 4 kts | 242° |
| 2026-04-23 15:11 | 55.62626 | 12.65184 | 27 ft | 4 kts | 203° |
| 2026-04-23 15:11 | 55.62601 | 12.65181 | 27 ft | 3 kts | 179° |
| 2026-04-23 15:12 | 55.62576 | 12.65182 | 27 ft | 4 kts | 179° |
| 2026-04-23 15:12 | 55.62549 | 12.65183 | 27 ft | 4 kts | 178° |
| 2026-04-23 15:12 | 55.62522 | 12.65184 | 27 ft | 3 kts | 178° |
| 2026-04-23 15:12 | 55.62518 | 12.65184 | 27 ft | 0 kts | 178° |
| 2026-04-23 15:16 | 55.62515 | 12.65184 | 27 ft | 1 kts | 178° |
| 2026-04-23 15:16 | 55.62475 | 12.65190 | 27 ft | 19 kts | 173° |
| 2026-04-23 15:16 | 55.62284 | 12.65206 | 27 ft | 34 kts | 186° |
| 2026-04-23 15:16 | 55.62067 | 12.65015 | 28 ft | 34 kts | 213° |
| 2026-04-23 15:17 | 55.61880 | 12.64800 | 27 ft | 29 kts | 213° |
| 2026-04-23 15:17 | 55.61711 | 12.64603 | 27 ft | 29 kts | 213° |
| 2026-04-23 15:17 | 55.61601 | 12.64475 | 27 ft | 29 kts | 213° |
| 2026-04-23 15:17 | 55.61377 | 12.64218 | 27 ft | 29 kts | 212° |
| 2026-04-23 15:18 | 55.61204 | 12.64021 | 27 ft | 31 kts | 213° |
| 2026-04-23 15:18 | 55.61018 | 12.63807 | 27 ft | 33 kts | 213° |
| 2026-04-23 15:18 | 55.60827 | 12.63587 | 27 ft | 33 kts | 213° |
| 2026-04-23 15:18 | 55.60639 | 12.63359 | 27 ft | 32 kts | 220° |
| 2026-04-23 15:19 | 55.60459 | 12.63126 | 27 ft | 23 kts | 191° |
| 2026-04-23 15:19 | 55.60394 | 12.63182 | 27 ft | 11 kts | 133° |
| 2026-04-23 15:19 | 55.60356 | 12.63255 | 28 ft | 13 kts | 133° |
| 2026-04-23 15:19 | 55.60365 | 12.63383 | 29 ft | 7 kts | 41° |
| 2026-04-23 15:20 | 55.60367 | 12.63386 | 29 ft | 0 kts | 41° |
| 2026-04-23 15:20 | 55.60490 | 12.63576 | 28 ft | 65 kts | 40° |
| 2026-04-23 15:20 | 55.61039 | 12.64410 | 32 ft | 141 kts | 42° |
| 2026-04-23 15:20 | 55.61874 | 12.65723 | 487 ft | 167 kts | 36° |
| 2026-04-23 15:21 | 55.62742 | 12.67127 | 1420 ft | 172 kts | 38° |
| 2026-04-23 15:21 | 55.63640 | 12.68571 | 2419 ft | 178 kts | 36° |
| 2026-04-23 15:21 | 55.64619 | 12.70118 | 3238 ft | 198 kts | 35° |
| 2026-04-23 15:21 | 55.65694 | 12.71786 | 4159 ft | 213 kts | 35° |
| 2026-04-23 15:22 | 55.66843 | 12.73545 | 5151 ft | 223 kts | 35° |
| 2026-04-23 15:22 | 55.68039 | 12.75364 | 6200 ft | 230 kts | 35° |
| 2026-04-23 15:22 | 55.69264 | 12.77217 | 7220 ft | 231 kts | 35° |
| 2026-04-23 15:22 | 55.70476 | 12.79055 | 8198 ft | 228 kts | 35° |
| 2026-04-23 15:23 | 55.71667 | 12.80866 | 9172 ft | 225 kts | 34° |
| 2026-04-23 15:23 | 55.72852 | 12.82673 | 10101 ft | 223 kts | 34° |
| 2026-04-23 15:23 | 55.74020 | 12.84459 | 10936 ft | 220 kts | 34° |